sensor_id;sensor_type;location;lat;lon;timestamp;temperature;humidity
63094;DHT22;49183;51.380;0.098;2023-09-19T00:01:43;10.60;85.90
63094;DHT22;49183;51.380;0.098;2023-09-19T00:04:14;10.60;85.80
63094;DHT22;49183;51.380;0.098;2023-09-19T00:06:43;10.60;85.70
63094;DHT22;49183;51.380;0.098;2023-09-19T00:09:14;10.70;85.70
63094;DHT22;49183;51.380;0.098;2023-09-19T00:11:43;10.60;85.70
63094;DHT22;49183;51.380;0.098;2023-09-19T00:14:12;10.60;85.70
63094;DHT22;49183;51.380;0.098;2023-09-19T00:16:42;10.60;85.60
63094;DHT22;49183;51.380;0.098;2023-09-19T00:19:10;10.60;85.70
63094;DHT22;49183;51.380;0.098;2023-09-19T00:21:38;10.60;85.70
63094;DHT22;49183;51.380;0.098;2023-09-19T00:24:08;10.50;85.70
63094;DHT22;49183;51.380;0.098;2023-09-19T00:26:37;10.60;85.80
63094;DHT22;49183;51.380;0.098;2023-09-19T00:29:06;10.60;85.80
63094;DHT22;49183;51.380;0.098;2023-09-19T00:31:34;10.60;85.80
63094;DHT22;49183;51.380;0.098;2023-09-19T00:34:05;10.60;85.90
63094;DHT22;49183;51.380;0.098;2023-09-19T00:52:55;10.60;86.20
63094;DHT22;49183;51.380;0.098;2023-09-19T00:55:24;10.60;86.20
63094;DHT22;49183;51.380;0.098;2023-09-19T00:57:52;10.60;86.20
63094;DHT22;49183;51.380;0.098;2023-09-19T01:00:37;10.60;86.20
63094;DHT22;49183;51.380;0.098;2023-09-19T01:09:48;10.50;86.40
63094;DHT22;49183;51.380;0.098;2023-09-19T01:42:04;10.70;86.30
63094;DHT22;49183;51.380;0.098;2023-09-19T01:57:42;10.90;86.10
63094;DHT22;49183;51.380;0.098;2023-09-19T01:59:54;10.90;86.10
63094;DHT22;49183;51.380;0.098;2023-09-19T02:02:26;10.90;86.00
63094;DHT22;49183;51.380;0.098;2023-09-19T02:05:28;11.00;86.00
63094;DHT22;49183;51.380;0.098;2023-09-19T02:08:02;11.00;85.90
63094;DHT22;49183;51.380;0.098;2023-09-19T02:10:31;11.10;85.90
63094;DHT22;49183;51.380;0.098;2023-09-19T02:14:32;11.10;85.80
63094;DHT22;49183;51.380;0.098;2023-09-19T02:17:44;11.10;85.80
63094;DHT22;49183;51.380;0.098;2023-09-19T02:20:13;11.10;85.80
63094;DHT22;49183;51.380;0.098;2023-09-19T02:22:42;11.10;85.70
63094;DHT22;49183;51.380;0.098;2023-09-19T02:25:11;11.20;85.70
63094;DHT22;49183;51.380;0.098;2023-09-19T02:27:41;11.20;85.70
63094;DHT22;49183;51.380;0.098;2023-09-19T02:30:12;11.20;85.70
63094;DHT22;49183;51.380;0.098;2023-09-19T02:32:43;11.20;85.70
63094;DHT22;49183;51.380;0.098;2023-09-19T02:35:14;11.20;85.70
63094;DHT22;49183;51.380;0.098;2023-09-19T02:37:43;11.20;85.70
63094;DHT22;49183;51.380;0.098;2023-09-19T02:40:13;11.20;85.70
63094;DHT22;49183;51.380;0.098;2023-09-19T02:42:49;11.20;85.70
63094;DHT22;49183;51.380;0.098;2023-09-19T02:45:27;11.20;85.70
63094;DHT22;49183;51.380;0.098;2023-09-19T02:48:06;11.20;85.80
63094;DHT22;49183;51.380;0.098;2023-09-19T02:51:25;11.20;85.80
63094;DHT22;49183;51.380;0.098;2023-09-19T02:54:00;11.20;85.90
63094;DHT22;49183;51.380;0.098;2023-09-19T02:56:29;11.10;86.10
63094;DHT22;49183;51.380;0.098;2023-09-19T02:59:15;11.00;86.40
63094;DHT22;49183;51.380;0.098;2023-09-19T03:01:46;11.00;86.70
63094;DHT22;49183;51.380;0.098;2023-09-19T03:04:15;10.90;87.00
63094;DHT22;49183;51.380;0.098;2023-09-19T03:06:48;10.90;87.20
63094;DHT22;49183;51.380;0.098;2023-09-19T03:09:19;10.80;87.50
63094;DHT22;49183;51.380;0.098;2023-09-19T03:11:47;10.80;87.70
63094;DHT22;49183;51.380;0.098;2023-09-19T03:14:15;10.80;87.80
63094;DHT22;49183;51.380;0.098;2023-09-19T03:16:44;10.80;87.90
63094;DHT22;49183;51.380;0.098;2023-09-19T03:19:14;10.80;88.00
63094;DHT22;49183;51.380;0.098;2023-09-19T03:21:44;10.80;88.10
63094;DHT22;49183;51.380;0.098;2023-09-19T03:24:12;10.80;88.20
63094;DHT22;49183;51.380;0.098;2023-09-19T03:26:40;10.80;88.30
63094;DHT22;49183;51.380;0.098;2023-09-19T03:29:08;10.80;88.40
63094;DHT22;49183;51.380;0.098;2023-09-19T03:31:38;10.80;88.50
63094;DHT22;49183;51.380;0.098;2023-09-19T03:34:08;10.80;88.50
63094;DHT22;49183;51.380;0.098;2023-09-19T03:36:37;10.80;88.60
63094;DHT22;49183;51.380;0.098;2023-09-19T03:39:05;10.80;88.70
63094;DHT22;49183;51.380;0.098;2023-09-19T03:41:33;10.80;88.80
63094;DHT22;49183;51.380;0.098;2023-09-19T03:44:04;10.80;88.80
63094;DHT22;49183;51.380;0.098;2023-09-19T03:46:33;10.80;88.90
63094;DHT22;49183;51.380;0.098;2023-09-19T03:49:04;10.80;88.90
63094;DHT22;49183;51.380;0.098;2023-09-19T03:51:32;10.80;89.00
63094;DHT22;49183;51.380;0.098;2023-09-19T03:54:04;10.80;89.00
63094;DHT22;49183;51.380;0.098;2023-09-19T03:56:32;10.80;89.10
63094;DHT22;49183;51.380;0.098;2023-09-19T03:59:00;10.80;89.10
63094;DHT22;49183;51.380;0.098;2023-09-19T04:01:28;10.80;89.10
63094;DHT22;49183;51.380;0.098;2023-09-19T04:03:59;10.90;89.10
63094;DHT22;49183;51.380;0.098;2023-09-19T04:06:36;10.90;89.20
63094;DHT22;49183;51.380;0.098;2023-09-19T04:09:04;10.90;89.30
63094;DHT22;49183;51.380;0.098;2023-09-19T04:11:38;10.90;89.30
63094;DHT22;49183;51.380;0.098;2023-09-19T04:14:06;11.00;89.40
63094;DHT22;49183;51.380;0.098;2023-09-19T04:16:34;11.00;89.40
63094;DHT22;49183;51.380;0.098;2023-09-19T04:19:03;11.00;89.40
63094;DHT22;49183;51.380;0.098;2023-09-19T04:21:31;11.00;89.50
63094;DHT22;49183;51.380;0.098;2023-09-19T04:23:59;11.00;89.70
63094;DHT22;49183;51.380;0.098;2023-09-19T04:26:27;11.00;89.80
63094;DHT22;49183;51.380;0.098;2023-09-19T04:28:55;11.00;89.90
63094;DHT22;49183;51.380;0.098;2023-09-19T04:31:24;11.00;90.10
63094;DHT22;49183;51.380;0.098;2023-09-19T04:33:53;11.00;90.20
63094;DHT22;49183;51.380;0.098;2023-09-19T04:36:21;11.00;90.30
63094;DHT22;49183;51.380;0.098;2023-09-19T04:39:02;11.00;90.40
63094;DHT22;49183;51.380;0.098;2023-09-19T04:41:33;11.00;90.50
63094;DHT22;49183;51.380;0.098;2023-09-19T04:44:01;11.00;90.60
63094;DHT22;49183;51.380;0.098;2023-09-19T04:46:30;11.00;90.70
63094;DHT22;49183;51.380;0.098;2023-09-19T04:48:58;11.00;90.80
63094;DHT22;49183;51.380;0.098;2023-09-19T04:51:26;11.00;90.90
63094;DHT22;49183;51.380;0.098;2023-09-19T04:53:57;11.10;90.90
63094;DHT22;49183;51.380;0.098;2023-09-19T04:56:25;11.10;91.00
63094;DHT22;49183;51.380;0.098;2023-09-19T04:58:53;11.10;91.10
63094;DHT22;49183;51.380;0.098;2023-09-19T05:01:21;11.10;91.20
63094;DHT22;49183;51.380;0.098;2023-09-19T05:03:50;11.00;91.30
63094;DHT22;49183;51.380;0.098;2023-09-19T05:06:21;11.10;91.40
63094;DHT22;49183;51.380;0.098;2023-09-19T05:08:50;11.10;91.60
63094;DHT22;49183;51.380;0.098;2023-09-19T05:11:20;11.10;91.70
63094;DHT22;49183;51.380;0.098;2023-09-19T05:13:52;11.10;91.70
63094;DHT22;49183;51.380;0.098;2023-09-19T05:16:20;11.10;91.80
63094;DHT22;49183;51.380;0.098;2023-09-19T05:18:48;11.20;91.90
63094;DHT22;49183;51.380;0.098;2023-09-19T05:21:19;11.20;92.10
63094;DHT22;49183;51.380;0.098;2023-09-19T05:23:47;11.20;92.10
63094;DHT22;49183;51.380;0.098;2023-09-19T05:26:17;11.30;92.30
63094;DHT22;49183;51.380;0.098;2023-09-19T05:28:45;11.30;92.30
63094;DHT22;49183;51.380;0.098;2023-09-19T05:31:15;11.30;92.30
63094;DHT22;49183;51.380;0.098;2023-09-19T05:33:45;11.30;92.40
63094;DHT22;49183;51.380;0.098;2023-09-19T05:36:13;11.30;92.40
63094;DHT22;49183;51.380;0.098;2023-09-19T05:38:43;11.40;92.50
63094;DHT22;49183;51.380;0.098;2023-09-19T05:41:12;11.40;92.50
63094;DHT22;49183;51.380;0.098;2023-09-19T05:43:41;11.40;92.60
63094;DHT22;49183;51.380;0.098;2023-09-19T05:46:10;11.50;92.60
63094;DHT22;49183;51.380;0.098;2023-09-19T05:48:41;11.50;92.70
63094;DHT22;49183;51.380;0.098;2023-09-19T05:51:09;11.50;92.70
63094;DHT22;49183;51.380;0.098;2023-09-19T05:53:37;11.60;92.80
63094;DHT22;49183;51.380;0.098;2023-09-19T05:56:06;11.60;92.80
63094;DHT22;49183;51.380;0.098;2023-09-19T05:58:34;11.60;92.80
63094;DHT22;49183;51.380;0.098;2023-09-19T06:01:02;11.70;92.90
63094;DHT22;49183;51.380;0.098;2023-09-19T06:03:31;11.70;92.90
63094;DHT22;49183;51.380;0.098;2023-09-19T06:05:59;11.80;93.00
63094;DHT22;49183;51.380;0.098;2023-09-19T06:08:27;11.80;93.10
63094;DHT22;49183;51.380;0.098;2023-09-19T06:10:56;11.80;93.20
63094;DHT22;49183;51.380;0.098;2023-09-19T06:13:24;11.80;93.20
63094;DHT22;49183;51.380;0.098;2023-09-19T06:15:54;11.90;93.20
63094;DHT22;49183;51.380;0.098;2023-09-19T06:18:24;11.90;93.20
63094;DHT22;49183;51.380;0.098;2023-09-19T06:20:53;12.00;93.20
63094;DHT22;49183;51.380;0.098;2023-09-19T06:23:21;12.00;93.30
63094;DHT22;49183;51.380;0.098;2023-09-19T06:25:50;12.10;93.30
63094;DHT22;49183;51.380;0.098;2023-09-19T06:28:18;12.10;93.30
63094;DHT22;49183;51.380;0.098;2023-09-19T06:30:51;12.10;93.30
63094;DHT22;49183;51.380;0.098;2023-09-19T06:33:19;12.20;93.40
63094;DHT22;49183;51.380;0.098;2023-09-19T06:35:49;12.30;93.40
63094;DHT22;49183;51.380;0.098;2023-09-19T06:38:20;12.30;93.40
63094;DHT22;49183;51.380;0.098;2023-09-19T06:40:48;12.30;93.40
63094;DHT22;49183;51.380;0.098;2023-09-19T06:43:16;12.40;93.40
63094;DHT22;49183;51.380;0.098;2023-09-19T06:45:45;12.40;93.50
63094;DHT22;49183;51.380;0.098;2023-09-19T06:48:13;12.50;93.50
63094;DHT22;49183;51.380;0.098;2023-09-19T06:50:41;12.60;93.50
63094;DHT22;49183;51.380;0.098;2023-09-19T06:53:11;12.70;93.50
63094;DHT22;49183;51.380;0.098;2023-09-19T06:55:39;12.70;93.40
63094;DHT22;49183;51.380;0.098;2023-09-19T06:58:07;12.80;93.40
63094;DHT22;49183;51.380;0.098;2023-09-19T07:00:36;12.80;93.30
63094;DHT22;49183;51.380;0.098;2023-09-19T07:03:05;12.90;93.30
63094;DHT22;49183;51.380;0.098;2023-09-19T07:05:35;12.90;93.20
63094;DHT22;49183;51.380;0.098;2023-09-19T07:08:09;13.00;93.20
63094;DHT22;49183;51.380;0.098;2023-09-19T07:10:40;13.10;93.10
63094;DHT22;49183;51.380;0.098;2023-09-19T07:13:09;13.10;93.10
63094;DHT22;49183;51.380;0.098;2023-09-19T07:15:38;13.20;93.00
63094;DHT22;49183;51.380;0.098;2023-09-19T07:18:09;13.20;93.00
63094;DHT22;49183;51.380;0.098;2023-09-19T07:20:38;13.30;93.00
63094;DHT22;49183;51.380;0.098;2023-09-19T07:23:06;13.30;92.90
63094;DHT22;49183;51.380;0.098;2023-09-19T07:25:35;13.30;92.90
63094;DHT22;49183;51.380;0.098;2023-09-19T07:28:03;13.40;93.00
63094;DHT22;49183;51.380;0.098;2023-09-19T07:30:31;13.40;93.00
63094;DHT22;49183;51.380;0.098;2023-09-19T07:32:59;13.50;93.00
63094;DHT22;49183;51.380;0.098;2023-09-19T07:35:26;13.60;93.00
63094;DHT22;49183;51.380;0.098;2023-09-19T07:37:54;13.70;92.90
63094;DHT22;49183;51.380;0.098;2023-09-19T07:40:24;13.80;92.80
63094;DHT22;49183;51.380;0.098;2023-09-19T07:42:56;13.90;92.60
63094;DHT22;49183;51.380;0.098;2023-09-19T07:45:32;14.00;92.30
63094;DHT22;49183;51.380;0.098;2023-09-19T07:47:59;14.10;92.10
63094;DHT22;49183;51.380;0.098;2023-09-19T07:50:33;14.20;91.80
63094;DHT22;49183;51.380;0.098;2023-09-19T07:53:01;14.30;91.60
63094;DHT22;49183;51.380;0.098;2023-09-19T07:55:32;14.30;91.30
63094;DHT22;49183;51.380;0.098;2023-09-19T07:58:01;14.40;91.10
63094;DHT22;49183;51.380;0.098;2023-09-19T08:00:31;14.50;90.90
63094;DHT22;49183;51.380;0.098;2023-09-19T08:03:02;14.50;90.60
63094;DHT22;49183;51.380;0.098;2023-09-19T08:05:43;14.50;90.50
63094;DHT22;49183;51.380;0.098;2023-09-19T08:08:11;14.60;90.30
63094;DHT22;49183;51.380;0.098;2023-09-19T08:10:42;14.70;90.10
63094;DHT22;49183;51.380;0.098;2023-09-19T08:13:18;14.80;89.90
63094;DHT22;49183;51.380;0.098;2023-09-19T08:15:46;14.80;89.80
63094;DHT22;49183;51.380;0.098;2023-09-19T08:18:15;14.80;89.60
63094;DHT22;49183;51.380;0.098;2023-09-19T08:20:43;14.90;89.40
63094;DHT22;49183;51.380;0.098;2023-09-19T08:23:13;14.90;89.30
63094;DHT22;49183;51.380;0.098;2023-09-19T08:25:43;15.00;89.20
63094;DHT22;49183;51.380;0.098;2023-09-19T08:28:11;15.10;89.10
63094;DHT22;49183;51.380;0.098;2023-09-19T08:30:41;15.10;89.00
63094;DHT22;49183;51.380;0.098;2023-09-19T08:33:14;15.20;89.00
63094;DHT22;49183;51.380;0.098;2023-09-19T08:35:43;15.20;89.00
63094;DHT22;49183;51.380;0.098;2023-09-19T08:38:14;15.30;88.90
63094;DHT22;49183;51.380;0.098;2023-09-19T08:40:45;15.30;88.80
63094;DHT22;49183;51.380;0.098;2023-09-19T08:43:12;15.40;88.80
63094;DHT22;49183;51.380;0.098;2023-09-19T08:45:40;15.40;88.60
63094;DHT22;49183;51.380;0.098;2023-09-19T08:48:23;15.50;88.70
63094;DHT22;49183;51.380;0.098;2023-09-19T08:51:17;15.50;88.70
63094;DHT22;49183;51.380;0.098;2023-09-19T08:56:20;15.70;88.70
63094;DHT22;49183;51.380;0.098;2023-09-19T08:58:53;15.80;88.60
63094;DHT22;49183;51.380;0.098;2023-09-19T09:01:28;15.80;88.50
63094;DHT22;49183;51.380;0.098;2023-09-19T09:03:56;15.90;88.50
63094;DHT22;49183;51.380;0.098;2023-09-19T09:06:25;16.00;88.40
63094;DHT22;49183;51.380;0.098;2023-09-19T09:08:53;16.10;88.40
63094;DHT22;49183;51.380;0.098;2023-09-19T09:11:23;16.20;88.20
63094;DHT22;49183;51.380;0.098;2023-09-19T09:13:52;16.30;88.00
63094;DHT22;49183;51.380;0.098;2023-09-19T09:16:20;16.30;87.80
63094;DHT22;49183;51.380;0.098;2023-09-19T09:18:50;16.40;87.60
63094;DHT22;49183;51.380;0.098;2023-09-19T09:21:21;16.50;87.40
63094;DHT22;49183;51.380;0.098;2023-09-19T09:23:49;16.70;87.30
63094;DHT22;49183;51.380;0.098;2023-09-19T09:29:05;16.80;86.70
63094;DHT22;49183;51.380;0.098;2023-09-19T09:31:32;16.90;86.50
63094;DHT22;49183;51.380;0.098;2023-09-19T09:34:00;17.00;86.50
63094;DHT22;49183;51.380;0.098;2023-09-19T09:39:04;17.20;86.10
63094;DHT22;49183;51.380;0.098;2023-09-19T09:41:52;17.30;85.70
63094;DHT22;49183;51.380;0.098;2023-09-19T09:44:19;17.40;85.50
63094;DHT22;49183;51.380;0.098;2023-09-19T09:46:48;17.40;85.40
63094;DHT22;49183;51.380;0.098;2023-09-19T09:49:23;17.50;85.00
63094;DHT22;49183;51.380;0.098;2023-09-19T09:52:06;17.60;84.90
63094;DHT22;49183;51.380;0.098;2023-09-19T09:54:59;17.70;84.70
63094;DHT22;49183;51.380;0.098;2023-09-19T09:57:28;17.80;84.70
63094;DHT22;49183;51.380;0.098;2023-09-19T10:00:00;17.80;84.80
63094;DHT22;49183;51.380;0.098;2023-09-19T10:02:40;17.80;84.60
63094;DHT22;49183;51.380;0.098;2023-09-19T10:05:13;17.80;84.40
63094;DHT22;49183;51.380;0.098;2023-09-19T10:07:41;17.80;84.00
63094;DHT22;49183;51.380;0.098;2023-09-19T10:10:15;17.90;83.90
63094;DHT22;49183;51.380;0.098;2023-09-19T10:12:58;17.90;84.00
63094;DHT22;49183;51.380;0.098;2023-09-19T10:15:31;17.90;84.20
63094;DHT22;49183;51.380;0.098;2023-09-19T10:18:00;18.00;84.20
63094;DHT22;49183;51.380;0.098;2023-09-19T10:20:28;18.10;84.00
63094;DHT22;49183;51.380;0.098;2023-09-19T10:23:10;18.10;84.10
63094;DHT22;49183;51.380;0.098;2023-09-19T10:25:41;18.20;84.10
63094;DHT22;49183;51.380;0.098;2023-09-19T10:28:10;18.30;84.00
63094;DHT22;49183;51.380;0.098;2023-09-19T10:30:41;18.30;83.90
63094;DHT22;49183;51.380;0.098;2023-09-19T10:33:13;18.20;83.90
63094;DHT22;49183;51.380;0.098;2023-09-19T10:35:42;18.30;83.90
63094;DHT22;49183;51.380;0.098;2023-09-19T10:38:11;18.20;83.80
63094;DHT22;49183;51.380;0.098;2023-09-19T10:40:39;18.20;83.70
63094;DHT22;49183;51.380;0.098;2023-09-19T10:43:16;18.30;83.60
63094;DHT22;49183;51.380;0.098;2023-09-19T10:45:47;18.30;83.80
63094;DHT22;49183;51.380;0.098;2023-09-19T10:48:22;18.20;83.80
63094;DHT22;49183;51.380;0.098;2023-09-19T10:50:57;18.20;83.70
63094;DHT22;49183;51.380;0.098;2023-09-19T10:53:40;18.20;83.80
63094;DHT22;49183;51.380;0.098;2023-09-19T10:56:08;18.20;83.90
63094;DHT22;49183;51.380;0.098;2023-09-19T10:58:42;18.20;84.00
63094;DHT22;49183;51.380;0.098;2023-09-19T11:01:12;18.20;84.10
63094;DHT22;49183;51.380;0.098;2023-09-19T11:03:40;18.20;83.90
63094;DHT22;49183;51.380;0.098;2023-09-19T11:06:12;18.20;83.80
63094;DHT22;49183;51.380;0.098;2023-09-19T11:08:56;18.20;84.00
63094;DHT22;49183;51.380;0.098;2023-09-19T11:11:43;18.10;84.10
63094;DHT22;49183;51.380;0.098;2023-09-19T11:22:24;17.90;84.90
63094;DHT22;49183;51.380;0.098;2023-09-19T11:24:53;17.80;85.50
63094;DHT22;49183;51.380;0.098;2023-09-19T11:27:33;17.70;86.10
63094;DHT22;49183;51.380;0.098;2023-09-19T11:30:25;17.60;86.70
63094;DHT22;49183;51.380;0.098;2023-09-19T11:39:03;17.40;87.90
63094;DHT22;49183;51.380;0.098;2023-09-19T11:46:30;17.20;89.00
63094;DHT22;49183;51.380;0.098;2023-09-19T11:49:08;17.20;89.30
63094;DHT22;49183;51.380;0.098;2023-09-19T11:51:57;17.20;89.50
63094;DHT22;49183;51.380;0.098;2023-09-19T11:54:25;17.20;89.70
63094;DHT22;49183;51.380;0.098;2023-09-19T11:56:56;17.30;89.80
63094;DHT22;49183;51.380;0.098;2023-09-19T11:59:32;17.30;89.90
63094;DHT22;49183;51.380;0.098;2023-09-19T12:02:01;17.30;90.00
63094;DHT22;49183;51.380;0.098;2023-09-19T12:04:41;17.30;90.10
63094;DHT22;49183;51.380;0.098;2023-09-19T12:07:11;17.30;90.10
63094;DHT22;49183;51.380;0.098;2023-09-19T12:09:49;17.40;90.10
63094;DHT22;49183;51.380;0.098;2023-09-19T12:12:24;17.50;90.00
63094;DHT22;49183;51.380;0.098;2023-09-19T12:14:58;17.50;90.00
63094;DHT22;49183;51.380;0.098;2023-09-19T12:17:39;17.50;89.90
63094;DHT22;49183;51.380;0.098;2023-09-19T12:20:08;17.50;89.90
63094;DHT22;49183;51.380;0.098;2023-09-19T12:22:46;17.60;89.90
63094;DHT22;49183;51.380;0.098;2023-09-19T12:25:17;17.60;89.90
63094;DHT22;49183;51.380;0.098;2023-09-19T12:27:48;17.60;89.80
63094;DHT22;49183;51.380;0.098;2023-09-19T12:30:19;17.70;89.80
63094;DHT22;49183;51.380;0.098;2023-09-19T12:32:54;17.70;89.70
63094;DHT22;49183;51.380;0.098;2023-09-19T12:35:27;17.80;89.50
63094;DHT22;49183;51.380;0.098;2023-09-19T12:37:56;17.80;89.40
63094;DHT22;49183;51.380;0.098;2023-09-19T12:40:24;17.90;89.20
63094;DHT22;49183;51.380;0.098;2023-09-19T12:42:57;17.90;89.00
63094;DHT22;49183;51.380;0.098;2023-09-19T12:45:32;18.00;89.00
63094;DHT22;49183;51.380;0.098;2023-09-19T12:48:21;18.00;88.80
63094;DHT22;49183;51.380;0.098;2023-09-19T12:51:09;18.20;88.80
63094;DHT22;49183;51.380;0.098;2023-09-19T12:53:40;18.20;88.60
63094;DHT22;49183;51.380;0.098;2023-09-19T12:56:10;18.30;88.10
63094;DHT22;49183;51.380;0.098;2023-09-19T12:58:56;18.30;88.00
63094;DHT22;49183;51.380;0.098;2023-09-19T13:01:25;18.30;87.90
63094;DHT22;49183;51.380;0.098;2023-09-19T13:06:50;18.30;87.50
63094;DHT22;49183;51.380;0.098;2023-09-19T13:09:22;18.40;87.30
63094;DHT22;49183;51.380;0.098;2023-09-19T13:11:52;18.40;87.20
63094;DHT22;49183;51.380;0.098;2023-09-19T13:14:27;18.40;87.10
63094;DHT22;49183;51.380;0.098;2023-09-19T13:16:59;18.40;87.00
63094;DHT22;49183;51.380;0.098;2023-09-19T13:22:02;18.50;86.50
63094;DHT22;49183;51.380;0.098;2023-09-19T13:24:30;18.50;86.30
63094;DHT22;49183;51.380;0.098;2023-09-19T13:26:58;18.50;86.00
63094;DHT22;49183;51.380;0.098;2023-09-19T13:29:27;18.40;85.20
63094;DHT22;49183;51.380;0.098;2023-09-19T13:31:56;18.40;85.00
63094;DHT22;49183;51.380;0.098;2023-09-19T13:34:23;18.40;85.00
63094;DHT22;49183;51.380;0.098;2023-09-19T13:36:52;18.40;84.70
63094;DHT22;49183;51.380;0.098;2023-09-19T13:39:19;18.40;84.60
63094;DHT22;49183;51.380;0.098;2023-09-19T13:41:47;18.40;84.70
63094;DHT22;49183;51.380;0.098;2023-09-19T13:44:15;18.40;84.70
63094;DHT22;49183;51.380;0.098;2023-09-19T13:46:44;18.40;84.60
63094;DHT22;49183;51.380;0.098;2023-09-19T13:49:15;18.40;84.60
63094;DHT22;49183;51.380;0.098;2023-09-19T13:51:43;18.40;84.70
63094;DHT22;49183;51.380;0.098;2023-09-19T13:54:12;18.40;84.60
63094;DHT22;49183;51.380;0.098;2023-09-19T13:56:39;18.40;84.60
63094;DHT22;49183;51.380;0.098;2023-09-19T13:59:07;18.40;84.50
63094;DHT22;49183;51.380;0.098;2023-09-19T14:01:35;18.50;84.30
63094;DHT22;49183;51.380;0.098;2023-09-19T14:04:02;18.50;84.10
63094;DHT22;49183;51.380;0.098;2023-09-19T14:06:32;18.60;83.40
63094;DHT22;49183;51.380;0.098;2023-09-19T14:09:02;18.50;83.30
63094;DHT22;49183;51.380;0.098;2023-09-19T14:11:31;18.60;83.20
63094;DHT22;49183;51.380;0.098;2023-09-19T14:13:59;18.60;83.20
63094;DHT22;49183;51.380;0.098;2023-09-19T14:16:27;18.60;83.00
63094;DHT22;49183;51.380;0.098;2023-09-19T14:18:58;18.60;83.10
63094;DHT22;49183;51.380;0.098;2023-09-19T14:21:26;18.60;82.70
63094;DHT22;49183;51.380;0.098;2023-09-19T14:23:53;18.60;82.80
63094;DHT22;49183;51.380;0.098;2023-09-19T14:26:22;18.50;82.90
63094;DHT22;49183;51.380;0.098;2023-09-19T14:28:50;18.50;83.10
63094;DHT22;49183;51.380;0.098;2023-09-19T14:31:18;18.60;83.30
63094;DHT22;49183;51.380;0.098;2023-09-19T14:33:52;18.50;83.60
63094;DHT22;49183;51.380;0.098;2023-09-19T14:36:20;18.50;83.70
63094;DHT22;49183;51.380;0.098;2023-09-19T14:38:52;18.40;84.10
63094;DHT22;49183;51.380;0.098;2023-09-19T14:41:23;18.50;84.10
63094;DHT22;49183;51.380;0.098;2023-09-19T14:43:53;18.40;84.10
63094;DHT22;49183;51.380;0.098;2023-09-19T14:46:20;18.40;84.20
63094;DHT22;49183;51.380;0.098;2023-09-19T14:48:48;18.30;84.60
63094;DHT22;49183;51.380;0.098;2023-09-19T14:51:16;18.30;85.00
63094;DHT22;49183;51.380;0.098;2023-09-19T14:53:44;18.20;85.30
63094;DHT22;49183;51.380;0.098;2023-09-19T14:56:12;18.10;85.60
63094;DHT22;49183;51.380;0.098;2023-09-19T14:58:43;18.10;85.80
63094;DHT22;49183;51.380;0.098;2023-09-19T15:01:14;18.00;85.90
63094;DHT22;49183;51.380;0.098;2023-09-19T15:03:41;18.00;86.10
63094;DHT22;49183;51.380;0.098;2023-09-19T15:06:14;17.90;86.20
63094;DHT22;49183;51.380;0.098;2023-09-19T15:08:42;17.80;86.20
63094;DHT22;49183;51.380;0.098;2023-09-19T15:11:15;17.90;86.20
63094;DHT22;49183;51.380;0.098;2023-09-19T15:13:45;17.80;86.10
63094;DHT22;49183;51.380;0.098;2023-09-19T15:16:13;17.80;86.30
63094;DHT22;49183;51.380;0.098;2023-09-19T15:18:42;17.80;86.40
63094;DHT22;49183;51.380;0.098;2023-09-19T15:21:10;17.80;86.50
63094;DHT22;49183;51.380;0.098;2023-09-19T15:23:39;17.70;86.60
63094;DHT22;49183;51.380;0.098;2023-09-19T15:26:07;17.60;86.70
63094;DHT22;49183;51.380;0.098;2023-09-19T15:28:35;17.60;86.90
63094;DHT22;49183;51.380;0.098;2023-09-19T15:31:05;17.60;87.00
63094;DHT22;49183;51.380;0.098;2023-09-19T15:33:34;17.60;87.10
63094;DHT22;49183;51.380;0.098;2023-09-19T15:36:11;17.50;87.10
63094;DHT22;49183;51.380;0.098;2023-09-19T15:41:31;17.40;87.10
63094;DHT22;49183;51.380;0.098;2023-09-19T15:43:59;17.40;87.20
63094;DHT22;49183;51.380;0.098;2023-09-19T15:46:29;17.30;87.50
63094;DHT22;49183;51.380;0.098;2023-09-19T15:48:57;17.30;87.60
63094;DHT22;49183;51.380;0.098;2023-09-19T15:51:25;17.20;87.80
63094;DHT22;49183;51.380;0.098;2023-09-19T15:53:54;17.20;87.90
63094;DHT22;49183;51.380;0.098;2023-09-19T15:56:25;17.10;88.10
63094;DHT22;49183;51.380;0.098;2023-09-19T15:58:54;17.10;88.10
63094;DHT22;49183;51.380;0.098;2023-09-19T16:01:22;17.10;88.20
63094;DHT22;49183;51.380;0.098;2023-09-19T16:03:51;17.00;88.40
63094;DHT22;49183;51.380;0.098;2023-09-19T16:06:29;17.00;88.50
63094;DHT22;49183;51.380;0.098;2023-09-19T16:08:57;16.90;88.80
63094;DHT22;49183;51.380;0.098;2023-09-19T16:11:26;16.80;89.10
63094;DHT22;49183;51.380;0.098;2023-09-19T16:13:54;16.70;89.30
63094;DHT22;49183;51.380;0.098;2023-09-19T16:16:22;16.70;89.50
63094;DHT22;49183;51.380;0.098;2023-09-19T16:18:54;16.60;89.60
63094;DHT22;49183;51.380;0.098;2023-09-19T16:21:30;16.60;89.80
63094;DHT22;49183;51.380;0.098;2023-09-19T16:23:59;16.60;90.00
63094;DHT22;49183;51.380;0.098;2023-09-19T16:26:27;16.60;90.00
63094;DHT22;49183;51.380;0.098;2023-09-19T16:28:57;16.60;90.10
63094;DHT22;49183;51.380;0.098;2023-09-19T16:31:29;16.70;90.00
63094;DHT22;49183;51.380;0.098;2023-09-19T16:33:58;16.70;89.90
63094;DHT22;49183;51.380;0.098;2023-09-19T16:36:29;16.80;89.80
63094;DHT22;49183;51.380;0.098;2023-09-19T16:38:56;16.90;89.50
63094;DHT22;49183;51.380;0.098;2023-09-19T16:41:24;17.00;89.30
63094;DHT22;49183;51.380;0.098;2023-09-19T16:43:52;17.10;89.00
63094;DHT22;49183;51.380;0.098;2023-09-19T16:46:23;17.10;88.60
63094;DHT22;49183;51.380;0.098;2023-09-19T16:48:51;17.10;88.40
63094;DHT22;49183;51.380;0.098;2023-09-19T16:51:21;17.20;88.30
63094;DHT22;49183;51.380;0.098;2023-09-19T16:53:49;17.20;88.10
63094;DHT22;49183;51.380;0.098;2023-09-19T16:56:19;17.30;87.90
63094;DHT22;49183;51.380;0.098;2023-09-19T16:58:48;17.30;87.60
63094;DHT22;49183;51.380;0.098;2023-09-19T17:01:19;17.30;87.40
63094;DHT22;49183;51.380;0.098;2023-09-19T17:03:52;17.30;87.20
63094;DHT22;49183;51.380;0.098;2023-09-19T17:06:20;17.30;86.90
63094;DHT22;49183;51.380;0.098;2023-09-19T17:08:50;17.30;86.70
63094;DHT22;49183;51.380;0.098;2023-09-19T17:11:17;17.30;86.50
63094;DHT22;49183;51.380;0.098;2023-09-19T17:13:46;17.30;86.40
63094;DHT22;49183;51.380;0.098;2023-09-19T17:16:17;17.40;86.30
63094;DHT22;49183;51.380;0.098;2023-09-19T17:18:53;17.40;86.20
63094;DHT22;49183;51.380;0.098;2023-09-19T17:21:21;17.40;86.20
63094;DHT22;49183;51.380;0.098;2023-09-19T17:23:49;17.40;85.80
63094;DHT22;49183;51.380;0.098;2023-09-19T17:26:17;17.40;85.70
63094;DHT22;49183;51.380;0.098;2023-09-19T17:28:46;17.30;85.80
63094;DHT22;49183;51.380;0.098;2023-09-19T17:31:15;17.30;86.00
63094;DHT22;49183;51.380;0.098;2023-09-19T17:33:44;17.10;86.60
63094;DHT22;49183;51.380;0.098;2023-09-19T17:36:19;16.90;87.40